createdAt,value
2019-04-14T00:02:25.109Z,46.13
2019-04-14T00:04:52.954Z,46.09
2019-04-14T00:07:18.990Z,46.08
2019-04-14T00:09:45.308Z,46.17
2019-04-14T00:12:12.078Z,46.21
2019-04-14T00:14:38.312Z,46.21
2019-04-14T00:17:04.347Z,46.13
2019-04-14T00:19:30.631Z,46.24
2019-04-14T00:21:58.708Z,46.25
2019-04-14T00:24:24.936Z,46.20
2019-04-14T00:26:51.004Z,46.16
2019-04-14T00:29:17.386Z,46.08
2019-04-14T00:31:43.347Z,46.12
2019-04-14T00:34:11.374Z,46.14
2019-04-14T00:36:39.480Z,46.17
2019-04-14T00:39:18.314Z,46.13
2019-04-14T00:41:55.584Z,46.19
2019-04-14T00:44:39.438Z,46.22
2019-04-14T00:47:11.378Z,46.27
2019-04-14T00:49:37.623Z,46.42
2019-04-14T00:52:03.804Z,46.44
2019-04-14T00:54:30.440Z,46.45
2019-04-14T00:56:56.386Z,46.46
2019-04-14T00:59:22.329Z,46.43
2019-04-14T01:01:48.472Z,46.46
2019-04-14T01:04:14.442Z,46.42
2019-04-14T01:06:40.507Z,46.34
2019-04-14T01:09:08.554Z,46.35
2019-04-14T01:11:35.688Z,46.29
2019-04-14T01:14:01.644Z,46.30
2019-04-14T01:16:28.147Z,46.42
2019-04-14T01:18:54.019Z,46.48
2019-04-14T01:21:19.908Z,46.43
2019-04-14T01:23:45.964Z,46.44
2019-04-14T01:26:11.935Z,46.50
2019-04-14T01:28:37.916Z,46.58
2019-04-14T01:31:03.946Z,46.64
2019-04-14T01:33:29.823Z,46.64
2019-04-14T01:35:55.740Z,46.62
2019-04-14T01:38:21.676Z,46.58
2019-04-14T01:40:48.758Z,46.55
2019-04-14T01:43:14.788Z,46.50
2019-04-14T01:45:40.879Z,46.55
2019-04-14T01:48:06.854Z,46.54
2019-04-14T01:50:40.927Z,46.51
2019-04-14T01:53:11.976Z,46.52
2019-04-14T01:55:54.943Z,46.58
2019-04-14T01:58:22.924Z,46.56
2019-04-14T02:00:51.318Z,46.54
2019-04-14T02:03:17.355Z,46.58
2019-04-14T02:05:43.499Z,46.57
2019-04-14T02:08:09.461Z,46.59
2019-04-14T02:10:35.373Z,46.60
2019-04-14T02:13:02.728Z,46.60
2019-04-14T02:15:28.743Z,46.65
2019-04-14T02:17:54.765Z,46.66
2019-04-14T02:20:20.769Z,46.65
2019-04-14T02:22:46.717Z,46.65
2019-04-14T02:25:12.728Z,46.61
2019-04-14T02:27:38.786Z,46.65
2019-04-14T02:30:07.314Z,46.63
2019-04-14T02:32:57.231Z,46.62
2019-04-14T02:35:28.543Z,46.60
2019-04-14T02:40:34.861Z,46.54
2019-04-14T02:42:51.951Z,46.57
2019-04-14T02:45:19.877Z,46.55
2019-04-14T02:50:14.222Z,46.62
2019-04-14T02:52:46.554Z,46.73
2019-04-14T02:55:04.482Z,46.78
2019-04-14T03:02:38.525Z,46.77
2019-04-14T03:05:11.990Z,46.75
2019-04-14T03:07:34.173Z,46.71
2019-04-14T03:10:25.927Z,46.66
2019-04-14T03:12:28.025Z,46.61
2019-04-14T03:17:32.022Z,46.77
2019-04-14T03:20:15.286Z,46.82
2019-04-14T03:22:43.886Z,46.94
2019-04-14T03:25:16.718Z,46.97
2019-04-14T03:28:12.639Z,46.97
2019-04-14T03:35:51.456Z,46.85
2019-04-14T03:37:56.664Z,46.85
2019-04-14T03:40:28.534Z,46.90
2019-04-14T03:45:30.052Z,46.80
2019-04-14T03:47:56.268Z,46.85
2019-04-14T03:50:18.424Z,47.00
2019-04-14T03:52:53.274Z,47.04
2019-04-14T03:54:56.647Z,47.03
2019-04-14T03:57:08.930Z,47.01
2019-04-14T03:59:34.883Z,46.99
2019-04-14T04:02:00.938Z,46.96
2019-04-14T04:04:27.457Z,46.94
2019-04-14T04:06:53.561Z,46.91
2019-04-14T04:09:21.472Z,46.85
2019-04-14T04:11:47.658Z,46.90
2019-04-14T04:14:13.938Z,47.00
2019-04-14T04:16:53.644Z,47.04
2019-04-14T04:19:27.307Z,47.09
2019-04-14T04:22:11.429Z,47.21
2019-04-14T04:24:39.212Z,47.24
2019-04-14T04:27:06.951Z,47.21
2019-04-14T04:29:41.693Z,47.28
2019-04-14T04:32:27.851Z,47.35
2019-04-14T04:35:04.601Z,47.34
2019-04-14T04:37:49.784Z,47.26
2019-04-14T04:40:17.972Z,47.20
2019-04-14T04:42:43.803Z,47.17
2019-04-14T04:45:10.393Z,47.17
2019-04-14T04:47:36.429Z,47.22
2019-04-14T04:50:02.609Z,47.24
2019-04-14T04:52:28.466Z,47.25
2019-04-14T04:54:54.504Z,47.29
2019-04-14T04:57:20.379Z,47.30
2019-04-14T04:59:47.357Z,47.24
2019-04-14T05:02:13.667Z,47.22
2019-04-14T05:04:39.651Z,47.21
2019-04-14T05:07:05.656Z,47.18
2019-04-14T05:09:36.491Z,47.13
2019-04-14T05:12:13.539Z,47.10
2019-04-14T05:14:41.544Z,47.07
2019-04-14T05:17:07.909Z,47.08
2019-04-14T05:19:36.522Z,47.11
2019-04-14T05:22:02.730Z,47.07
2019-04-14T05:24:29.085Z,47.05
2019-04-14T05:26:54.916Z,47.04
2019-04-14T05:29:21.114Z,47.04
2019-04-14T05:31:46.935Z,47.02
2019-04-14T05:34:12.971Z,46.95
2019-04-14T05:36:38.964Z,46.98
2019-04-14T05:39:05.234Z,46.97
2019-04-14T05:41:31.124Z,46.96
2019-04-14T05:44:01.177Z,46.96
2019-04-14T05:46:25.263Z,46.94
2019-04-14T05:48:51.465Z,46.92
2019-04-14T05:51:19.910Z,46.91
2019-04-14T05:53:45.847Z,46.89
2019-04-14T05:56:12.152Z,46.88
2019-04-14T05:58:38.449Z,46.86
2019-04-14T06:01:04.742Z,46.84
2019-04-14T06:03:30.701Z,46.83
2019-04-14T06:05:56.724Z,46.79
2019-04-14T06:08:22.662Z,46.76
2019-04-14T06:10:48.546Z,46.74
2019-04-14T06:13:14.468Z,46.74
2019-04-14T06:15:40.348Z,46.71
2019-04-14T06:18:06.236Z,46.65
2019-04-14T06:20:32.188Z,46.67
2019-04-14T06:22:58.050Z,46.63
2019-04-14T06:25:23.967Z,46.63
2019-04-14T06:27:50.004Z,46.63
2019-04-14T06:30:18.353Z,46.63
2019-04-14T06:32:45.729Z,46.61
2019-04-14T06:35:19.555Z,46.60
2019-04-14T06:37:50.194Z,46.58
2019-04-14T06:40:16.093Z,46.56
2019-04-14T06:42:42.066Z,46.53
2019-04-14T06:45:07.950Z,46.52
2019-04-14T06:47:33.828Z,46.50
2019-04-14T06:49:59.829Z,46.49
2019-04-14T06:52:25.731Z,46.47
2019-04-14T06:54:51.585Z,46.44
2019-04-14T06:57:17.517Z,46.42
2019-04-14T06:59:43.407Z,46.39
2019-04-14T07:02:09.401Z,46.36
2019-04-14T07:04:35.448Z,46.36
2019-04-14T07:07:01.311Z,46.36
2019-04-14T07:09:27.175Z,46.34
2019-04-14T07:11:53.318Z,46.34
2019-04-14T07:14:19.283Z,46.31
2019-04-14T07:16:45.133Z,46.29
2019-04-14T07:19:11.178Z,46.27
2019-04-14T07:21:37.147Z,46.21
2019-04-14T07:24:03.133Z,46.18
2019-04-14T07:26:29.250Z,46.11
2019-04-14T07:28:56.802Z,46.07
2019-04-14T07:31:24.674Z,46.04
2019-04-14T07:33:52.555Z,45.96
2019-04-14T07:36:36.899Z,45.90
2019-04-14T07:39:06.354Z,45.88
2019-04-14T07:41:43.064Z,45.84
2019-04-14T07:44:11.011Z,45.83
2019-04-14T07:46:53.752Z,45.80
2019-04-14T07:49:21.606Z,45.80
2019-04-14T07:51:49.389Z,45.81
2019-04-14T07:54:17.177Z,45.83
2019-04-14T07:56:50.964Z,45.85
2019-04-14T07:59:18.836Z,45.85
2019-04-14T08:01:52.488Z,45.83
2019-04-14T08:04:22.855Z,45.80
2019-04-14T08:06:50.113Z,45.77
2019-04-14T08:09:16.070Z,45.72
2019-04-14T08:11:41.952Z,45.66
2019-04-14T08:14:07.804Z,45.63
2019-04-14T08:16:33.820Z,45.63
2019-04-14T08:18:59.691Z,45.55
2019-04-14T08:21:25.670Z,45.46
2019-04-14T08:23:51.748Z,45.34
2019-04-14T08:26:17.552Z,45.31
2019-04-14T08:28:43.505Z,45.32
2019-04-14T08:31:09.519Z,45.27
2019-04-14T08:33:35.476Z,45.19
2019-04-14T08:36:01.447Z,45.06
2019-04-14T08:38:27.445Z,44.93
2019-04-14T08:40:53.415Z,44.82
2019-04-14T08:43:30.015Z,44.76
2019-04-14T08:46:14.032Z,44.75
2019-04-14T08:48:45.008Z,44.70
2019-04-14T08:51:15.635Z,44.75
2019-04-14T08:53:49.223Z,44.79
2019-04-14T08:56:35.131Z,44.85
2019-04-14T08:59:06.017Z,44.87
2019-04-14T09:01:42.648Z,44.80
2019-04-14T09:04:16.194Z,44.76
2019-04-14T09:06:43.950Z,44.80
2019-04-14T09:09:14.592Z,44.77
2019-04-14T09:11:51.171Z,44.76
2019-04-14T09:14:17.040Z,44.74
2019-04-14T09:16:42.993Z,44.74
2019-04-14T09:19:09.247Z,44.74
2019-04-14T09:21:35.122Z,44.68
2019-04-14T09:24:01.072Z,44.63
2019-04-14T09:26:27.132Z,44.62
2019-04-14T09:28:53.082Z,44.61
2019-04-14T09:31:19.046Z,44.63
2019-04-14T09:33:45.024Z,44.63
2019-04-14T09:36:11.095Z,44.60
2019-04-14T09:38:36.992Z,44.45
2019-04-14T09:41:03.739Z,44.25
2019-04-14T09:43:29.619Z,44.07
2019-04-14T09:45:55.484Z,43.92
2019-04-14T09:48:21.426Z,43.79
2019-04-14T09:50:47.304Z,43.68
2019-04-14T09:53:13.271Z,43.57
2019-04-14T09:55:39.237Z,43.32
2019-04-14T09:58:05.115Z,43.33
2019-04-14T10:00:32.887Z,43.31
2019-04-14T10:02:58.917Z,43.19
2019-04-14T10:05:24.788Z,43.10
2019-04-14T10:07:50.636Z,43.04
2019-04-14T10:10:16.611Z,43.06
2019-04-14T10:12:42.461Z,42.90
2019-04-14T10:15:08.421Z,42.91
2019-04-14T10:17:34.400Z,42.73
2019-04-14T10:20:00.297Z,42.62
2019-04-14T10:22:33.783Z,42.41
2019-04-14T10:24:53.961Z,42.38
2019-04-14T10:27:19.816Z,42.40
2019-04-14T10:29:45.823Z,42.47
2019-04-14T10:32:11.745Z,42.33
2019-04-14T10:34:37.620Z,41.41
2019-04-14T10:37:03.493Z,39.28
2019-04-14T10:39:29.512Z,40.90
2019-04-14T10:41:55.445Z,37.95
2019-04-14T10:44:21.384Z,37.02
2019-04-14T10:46:47.341Z,38.65
2019-04-14T10:49:13.212Z,38.03
2019-04-14T10:51:39.159Z,37.72
2019-04-14T10:54:05.211Z,37.63
2019-04-14T10:56:31.076Z,37.27
2019-04-14T10:58:56.974Z,36.88
2019-04-14T11:01:23.033Z,36.38
2019-04-14T11:03:48.989Z,37.26
2019-04-14T11:06:31.696Z,36.29
2019-04-14T11:08:57.611Z,36.82
2019-04-14T11:11:23.472Z,36.38
2019-04-14T11:13:49.413Z,36.76
2019-04-14T11:16:15.313Z,37.53
2019-04-14T11:18:41.193Z,36.40
2019-04-14T11:21:07.179Z,35.99
2019-04-14T11:23:33.053Z,35.78
2019-04-14T11:25:58.890Z,34.86
2019-04-14T11:28:24.939Z,34.82
2019-04-14T11:30:50.935Z,34.01
2019-04-14T11:33:36.724Z,34.13
2019-04-14T11:36:04.999Z,34.38
2019-04-14T11:38:32.761Z,34.55
2019-04-14T11:41:00.680Z,34.43
2019-04-14T11:43:26.772Z,34.53
2019-04-14T11:45:52.726Z,33.75
2019-04-14T11:48:18.778Z,33.49
2019-04-14T11:50:44.668Z,33.94
2019-04-14T11:53:10.925Z,31.93
2019-04-14T11:55:37.059Z,32.87
2019-04-14T11:58:03.012Z,32.61
2019-04-14T12:00:48.752Z,32.23
2019-04-14T12:03:25.158Z,32.47
2019-04-14T12:06:09.314Z,31.83
2019-04-14T12:08:51.838Z,31.76
2019-04-14T12:11:17.873Z,31.15
2019-04-14T12:13:43.843Z,31.40
2019-04-14T12:16:09.677Z,32.30
2019-04-14T12:18:35.701Z,31.69
2019-04-14T12:21:01.574Z,31.14
2019-04-14T12:23:27.466Z,32.32
2019-04-14T12:26:04.651Z,32.50
2019-04-14T12:28:21.938Z,31.54
2019-04-14T12:30:48.964Z,31.08
2019-04-14T12:33:15.146Z,31.79
2019-04-14T12:35:41.012Z,31.31
2019-04-14T12:38:06.984Z,31.77
2019-04-14T12:40:33.074Z,32.03
2019-04-14T12:43:03.480Z,31.74
2019-04-14T12:45:31.359Z,31.43
2019-04-14T12:48:15.578Z,31.74
2019-04-14T12:50:43.338Z,30.82
2019-04-14T12:53:09.206Z,30.93
2019-04-14T12:55:35.368Z,29.96
2019-04-14T12:58:05.997Z,30.25
2019-04-14T13:00:33.771Z,29.26
2019-04-14T13:02:59.865Z,30.46
2019-04-14T13:05:25.732Z,30.28
2019-04-14T13:07:51.629Z,30.38
2019-04-14T13:10:17.722Z,30.99
2019-04-14T13:12:43.581Z,30.12
2019-04-14T13:15:09.532Z,31.09
2019-04-14T13:17:35.492Z,30.95
2019-04-14T13:20:01.767Z,30.54
2019-04-14T13:22:33.801Z,30.67
2019-04-14T13:24:55.415Z,30.00
2019-04-14T13:27:23.251Z,29.94
2019-04-14T13:29:48.965Z,29.21
2019-04-14T13:32:15.067Z,30.38
2019-04-14T13:34:40.937Z,30.91
2019-04-14T13:37:06.792Z,30.49
2019-04-14T13:39:32.996Z,30.74
2019-04-14T13:41:58.965Z,29.85
2019-04-14T13:44:24.813Z,30.28
2019-04-14T13:46:50.809Z,30.96
2019-04-14T13:49:16.688Z,30.76
2019-04-14T13:51:42.548Z,31.01
2019-04-14T13:54:08.588Z,30.25
2019-04-14T13:56:34.441Z,31.07
2019-04-14T13:59:00.288Z,31.19
2019-04-14T14:01:26.374Z,31.71
2019-04-14T14:03:52.224Z,31.45
2019-04-14T14:06:18.069Z,31.00
2019-04-14T14:08:44.112Z,30.98
2019-04-14T14:11:12.002Z,31.37
2019-04-14T14:13:39.730Z,30.56
2019-04-14T14:16:10.181Z,31.47
2019-04-14T14:18:37.976Z,31.73
2019-04-14T14:21:19.648Z,31.06
2019-04-14T14:23:50.191Z,31.83
2019-04-14T14:26:20.763Z,32.26
2019-04-14T14:28:46.595Z,31.63
2019-04-14T14:31:12.457Z,32.01
2019-04-14T14:33:38.461Z,31.90
2019-04-14T14:36:04.414Z,32.25
2019-04-14T14:38:30.312Z,32.48
2019-04-14T14:40:57.668Z,32.14
2019-04-14T14:43:23.529Z,32.31
2019-04-14T14:45:51.344Z,32.73
2019-04-14T14:48:22.015Z,32.66
2019-04-14T14:50:55.650Z,32.98
2019-04-14T14:53:22.341Z,33.04
2019-04-14T14:55:48.379Z,32.94
2019-04-14T14:58:14.362Z,32.74
2019-04-14T15:00:40.304Z,32.91
2019-04-14T15:03:06.670Z,33.08
2019-04-14T15:05:32.636Z,33.33
2019-04-14T15:07:58.503Z,33.29
2019-04-14T15:10:24.479Z,33.08
2019-04-14T15:12:50.455Z,32.82
2019-04-14T15:15:16.354Z,33.31
2019-04-14T15:17:42.404Z,33.31
2019-04-14T15:20:08.357Z,33.38
2019-04-14T15:22:34.307Z,33.56
2019-04-14T15:25:00.266Z,33.46
2019-04-14T15:27:26.339Z,33.56
2019-04-14T15:29:52.212Z,33.62
2019-04-14T15:32:18.181Z,32.80
2019-04-14T15:34:44.137Z,33.02
2019-04-14T15:37:10.004Z,33.34
2019-04-14T15:39:37.566Z,33.19
2019-04-14T15:42:03.851Z,33.37
2019-04-14T15:44:29.685Z,33.43
2019-04-14T15:46:55.639Z,33.20
2019-04-14T15:49:21.893Z,33.08
2019-04-14T15:51:47.854Z,33.28
2019-04-14T15:54:13.985Z,33.68
2019-04-14T15:56:44.889Z,33.59
2019-04-14T15:59:29.505Z,33.63
2019-04-14T16:02:13.755Z,33.92
2019-04-14T16:04:41.822Z,33.75
2019-04-14T16:07:09.662Z,33.60
2019-04-14T16:09:37.414Z,33.37
2019-04-14T16:12:05.398Z,33.82
2019-04-14T16:14:47.887Z,33.94
2019-04-14T16:17:27.781Z,34.06
2019-04-14T16:19:55.597Z,33.99
2019-04-14T16:22:21.449Z,34.11
2019-04-14T16:24:47.442Z,34.13
2019-04-14T16:27:21.286Z,34.10
2019-04-14T16:30:07.198Z,34.10
2019-04-14T16:32:37.575Z,34.08
2019-04-14T16:35:05.646Z,34.12
2019-04-14T16:37:31.606Z,34.25
2019-04-14T16:39:57.461Z,34.38
2019-04-14T16:42:23.328Z,34.57
2019-04-14T16:44:49.371Z,34.36
2019-04-14T16:47:15.242Z,34.70
2019-04-14T16:49:42.036Z,34.84
2019-04-14T16:52:09.932Z,34.96
2019-04-14T16:54:55.595Z,34.86
2019-04-14T16:57:32.479Z,34.90
2019-04-14T16:59:58.562Z,34.87
2019-04-14T17:02:24.522Z,35.00
2019-04-14T17:04:50.538Z,35.17
2019-04-14T17:07:16.511Z,35.37
2019-04-14T17:09:42.360Z,35.44
2019-04-14T17:12:08.512Z,35.40
2019-04-14T17:14:41.989Z,35.35
2019-04-14T17:17:09.935Z,35.45
2019-04-14T17:19:43.707Z,35.56
2019-04-14T17:22:14.154Z,35.75
2019-04-14T17:24:58.463Z,35.80
2019-04-14T17:27:26.577Z,35.83
2019-04-14T17:29:59.990Z,35.77
2019-04-14T17:32:33.581Z,35.84
2019-04-14T17:35:07.390Z,35.97
2019-04-14T17:37:44.035Z,36.05
2019-04-14T17:40:12.034Z,36.04
2019-04-14T17:42:39.799Z,36.18
2019-04-14T17:45:13.916Z,36.22
2019-04-14T17:47:44.288Z,36.33
2019-04-14T17:50:12.178Z,36.31
2019-04-14T17:52:40.003Z,36.42
2019-04-14T17:55:10.895Z,36.49
2019-04-14T17:57:41.907Z,36.54
2019-04-14T18:00:24.936Z,36.64
2019-04-14T18:02:58.811Z,36.73
2019-04-14T18:05:41.335Z,36.80
2019-04-14T18:08:18.046Z,36.88
2019-04-14T18:11:03.853Z,36.93
2019-04-14T18:13:40.792Z,37.00
2019-04-14T18:16:08.563Z,37.03
2019-04-14T18:18:36.314Z,37.11
2019-04-14T18:21:04.303Z,37.16
2019-04-14T18:23:30.184Z,37.20
2019-04-14T18:25:56.124Z,37.31
2019-04-14T18:28:24.087Z,37.38
2019-04-14T18:30:51.922Z,37.45
2019-04-14T18:33:25.584Z,37.49
2019-04-14T18:35:53.360Z,37.52
2019-04-14T18:38:23.993Z,37.59
2019-04-14T18:40:51.983Z,37.69
2019-04-14T18:43:22.372Z,37.78
2019-04-14T18:45:59.326Z,37.84
2019-04-14T18:48:33.043Z,37.93
2019-04-14T18:51:13.021Z,38.05
2019-04-14T18:53:52.463Z,38.12
2019-04-14T18:56:22.959Z,38.24
2019-04-14T18:58:53.520Z,38.33
2019-04-14T19:01:21.275Z,38.33
2019-04-14T19:03:47.353Z,38.39
2019-04-14T19:06:13.308Z,38.56
2019-04-14T19:08:39.168Z,38.62
2019-04-14T19:11:12.840Z,38.60
2019-04-14T19:13:40.529Z,38.67
2019-04-14T19:16:08.334Z,38.73
2019-04-14T19:18:51.107Z,38.75
2019-04-14T19:21:18.952Z,38.86
2019-04-14T19:23:46.519Z,39.00
2019-04-14T19:26:12.760Z,39.06
2019-04-14T19:28:38.739Z,39.09
2019-04-14T19:31:04.719Z,39.17
2019-04-14T19:33:30.826Z,39.17
2019-04-14T19:35:56.678Z,39.28
2019-04-14T19:38:22.549Z,39.30
2019-04-14T19:40:48.546Z,39.50
2019-04-14T19:43:23.696Z,39.58
2019-04-14T19:45:42.103Z,39.51
2019-04-14T19:48:08.225Z,39.65
2019-04-14T19:50:34.113Z,39.71
2019-04-14T19:52:59.966Z,39.73
2019-04-14T19:55:25.991Z,39.74
2019-04-14T19:57:51.869Z,39.83
2019-04-14T20:00:18.044Z,40.00
2019-04-14T20:02:44.056Z,39.86
2019-04-14T20:05:11.290Z,39.89
2019-04-14T20:07:37.152Z,40.09
2019-04-14T20:10:04.911Z,40.14
2019-04-14T20:12:30.777Z,40.28
2019-04-14T20:14:56.650Z,40.35
2019-04-14T20:17:36.649Z,40.32
2019-04-14T20:20:17.517Z,40.43
2019-04-14T20:23:00.505Z,40.38
2019-04-14T20:25:44.813Z,40.29
2019-04-14T20:28:27.722Z,40.40
2019-04-14T20:31:04.489Z,40.48
2019-04-14T20:33:30.448Z,40.57
2019-04-14T20:35:56.323Z,40.64
2019-04-14T20:38:22.292Z,40.63
2019-04-14T20:40:48.257Z,40.77
2019-04-14T20:43:14.113Z,40.67
2019-04-14T20:45:39.996Z,40.66
2019-04-14T20:48:06.122Z,40.73
2019-04-14T20:50:31.953Z,41.06
2019-04-14T20:52:57.846Z,41.13
2019-04-14T20:55:23.825Z,41.17
2019-04-14T20:57:49.772Z,41.18
2019-04-14T21:00:16.031Z,41.23
2019-04-14T21:03:00.355Z,41.18
2019-04-14T21:05:30.748Z,41.22
2019-04-14T21:08:04.390Z,41.12
2019-04-14T21:10:32.140Z,41.14
2019-04-14T21:13:02.770Z,41.06
2019-04-14T21:15:30.647Z,41.13
2019-04-14T21:18:16.268Z,41.36
2019-04-14T21:20:50.028Z,41.34
2019-04-14T21:23:18.187Z,41.48
2019-04-14T21:26:01.361Z,41.37
2019-04-14T21:28:29.202Z,41.55
2019-04-14T21:31:15.312Z,41.45
2019-04-14T21:33:43.155Z,41.73
2019-04-14T21:36:13.807Z,41.65
2019-04-14T21:38:58.246Z,41.52
2019-04-14T21:41:34.637Z,41.50
2019-04-14T21:44:00.593Z,41.58
2019-04-14T21:46:26.460Z,41.65
2019-04-14T21:48:52.406Z,41.61
2019-04-14T21:51:18.529Z,41.66
2019-04-14T21:53:45.169Z,41.71
2019-04-14T21:56:13.481Z,41.93
2019-04-14T21:58:43.433Z,42.00
2019-04-14T22:01:35.484Z,41.96
2019-04-14T22:04:03.429Z,41.89
2019-04-14T22:06:31.184Z,42.05
2019-04-14T22:08:57.076Z,42.13
2019-04-14T22:11:25.033Z,42.15
2019-04-14T22:13:51.657Z,42.33
2019-04-14T22:16:17.546Z,42.26
2019-04-14T22:18:43.672Z,42.14
2019-04-14T22:21:09.548Z,42.08
2019-04-14T22:23:35.874Z,42.18
2019-04-14T22:26:02.104Z,42.20
2019-04-14T22:28:28.053Z,42.42
2019-04-14T22:30:54.049Z,42.37
2019-04-14T22:33:20.040Z,42.45
2019-04-14T22:35:45.866Z,42.41
2019-04-14T22:38:11.720Z,42.32
2019-04-14T22:40:37.788Z,42.28
2019-04-14T22:43:03.932Z,42.28
2019-04-14T22:45:29.892Z,42.34
2019-04-14T22:47:55.926Z,42.50
2019-04-14T22:50:21.770Z,42.65
2019-04-14T22:52:47.646Z,42.82
2019-04-14T22:55:13.706Z,42.69
2019-04-14T22:57:39.671Z,42.84
2019-04-14T23:00:11.267Z,42.66
2019-04-14T23:02:48.116Z,42.61
2019-04-14T23:05:32.174Z,42.58
2019-04-14T23:08:00.320Z,42.63
2019-04-14T23:10:30.932Z,42.64
2019-04-14T23:13:04.859Z,42.75
2019-04-14T23:15:48.974Z,42.70
2019-04-14T23:18:19.782Z,42.71
2019-04-14T23:20:47.550Z,42.61
2019-04-14T23:23:31.974Z,42.60
2019-04-14T23:25:57.970Z,42.78
2019-04-14T23:28:23.852Z,42.78
2019-04-14T23:30:49.862Z,42.77
2019-04-14T23:33:15.860Z,42.78
2019-04-14T23:35:41.729Z,42.71
2019-04-14T23:38:08.055Z,43.00
2019-04-14T23:40:34.005Z,43.20
2019-04-14T23:42:59.945Z,43.24
2019-04-14T23:45:25.923Z,43.22
2019-04-14T23:47:51.813Z,43.15
2019-04-14T23:50:17.797Z,43.05
2019-04-14T23:52:43.926Z,43.19
2019-04-14T23:55:09.984Z,43.04
2019-04-14T23:57:35.867Z,43.03
